createdAt,value
2022-12-17T00:01:43.602Z,52.35
2022-12-17T00:04:30.656Z,51.55
2022-12-17T00:07:21.501Z,49.55
2022-12-17T00:10:08.078Z,52.40
2022-12-17T00:12:53.324Z,52.13
2022-12-17T00:15:42.660Z,53.20
2022-12-17T00:18:28.007Z,51.92
2022-12-17T00:21:14.272Z,49.30
2022-12-17T00:24:02.087Z,56.47
2022-12-17T00:27:03.705Z,53.72
2022-12-17T00:29:48.702Z,44.92
2022-12-17T00:32:45.328Z,43.75
2022-12-17T00:35:30.438Z,54.42
2022-12-17T00:38:15.703Z,55.22
2022-12-17T00:41:01.016Z,50.45
2022-12-17T00:43:47.572Z,52.53
2022-12-17T00:46:32.799Z,47.47
2022-12-17T00:49:21.320Z,48.30
2022-12-17T00:52:06.683Z,48.25
2022-12-17T00:54:51.981Z,45.00
2022-12-17T00:57:37.335Z,49.50
2022-12-17T01:00:25.069Z,50.65
2022-12-17T01:03:18.838Z,47.80
2022-12-17T01:06:04.156Z,47.47
2022-12-17T01:08:45.677Z,49.03
2022-12-17T01:11:30.969Z,48.47
2022-12-17T01:14:16.338Z,45.50
2022-12-17T01:17:02.967Z,45.33
2022-12-17T01:19:48.178Z,48.45
2022-12-17T01:22:33.513Z,44.35
2022-12-17T01:25:18.842Z,47.38
2022-12-17T01:28:07.157Z,44.10
2022-12-17T01:30:54.649Z,47.20
2022-12-17T01:33:41.789Z,45.28
2022-12-17T01:36:27.581Z,46.38
2022-12-17T01:39:12.986Z,44.55
2022-12-17T01:41:58.135Z,46.75
2022-12-17T01:45:08.224Z,50.63
2022-12-17T01:47:57.592Z,45.88
2022-12-17T01:50:47.572Z,45.38
2022-12-17T01:53:35.980Z,48.13
2022-12-17T01:56:22.435Z,46.95
2022-12-17T01:59:07.427Z,46.65
2022-12-17T02:01:52.939Z,46.75
2022-12-17T02:04:38.520Z,43.58
2022-12-17T02:07:39.972Z,45.85
2022-12-17T02:10:36.782Z,47.08
2022-12-17T02:13:31.170Z,43.10
2022-12-17T02:16:22.507Z,43.92
2022-12-17T02:19:11.226Z,45.67
2022-12-17T02:22:01.114Z,43.65
2022-12-17T02:25:02.650Z,46.25
2022-12-17T02:27:49.744Z,46.60
2022-12-17T02:30:35.258Z,48.55
2022-12-17T02:33:21.051Z,48.17
2022-12-17T02:36:10.773Z,47.72
2022-12-17T02:38:56.787Z,48.50
2022-12-17T02:41:46.689Z,45.58
2022-12-17T02:44:37.075Z,47.58
2022-12-17T02:47:26.901Z,47.08
2022-12-17T02:50:12.807Z,44.20
2022-12-17T02:53:02.970Z,46.28
2022-12-17T02:55:48.361Z,54.00
2022-12-17T02:58:33.620Z,48.50
2022-12-17T03:01:20.461Z,48.92
2022-12-17T03:04:05.599Z,51.03
2022-12-17T03:06:50.887Z,48.97
2022-12-17T03:09:50.681Z,49.38
2022-12-17T03:12:35.743Z,50.83
2022-12-17T03:15:35.214Z,50.75
2022-12-17T03:18:21.845Z,51.65
2022-12-17T03:21:11.346Z,53.00
2022-12-17T03:23:56.670Z,54.95
2022-12-17T03:26:53.584Z,50.60
2022-12-17T03:29:37.896Z,55.13
2022-12-17T03:32:23.093Z,53.10
2022-12-17T03:35:09.832Z,53.45
2022-12-17T03:37:55.094Z,55.35
2022-12-17T03:40:40.394Z,54.70
2022-12-17T03:43:31.784Z,53.70
2022-12-17T03:46:17.605Z,53.05
2022-12-17T03:51:49.781Z,55.70
2022-12-17T03:54:35.080Z,58.88
2022-12-17T03:57:20.446Z,64.22
2022-12-17T04:00:05.714Z,58.63
2022-12-17T04:02:51.092Z,60.03
2022-12-17T04:05:36.318Z,57.33
2022-12-17T04:08:23.066Z,53.33
2022-12-17T04:11:08.398Z,62.30
2022-12-17T04:13:53.753Z,57.53
2022-12-17T04:16:42.247Z,56.67
2022-12-17T04:19:27.573Z,61.50
2022-12-17T04:22:12.840Z,56.72
2022-12-17T04:24:59.385Z,53.83
2022-12-17T04:27:44.776Z,57.97
2022-12-17T04:30:30.611Z,56.35
2022-12-17T04:33:15.922Z,58.47
2022-12-17T04:36:01.421Z,55.45
2022-12-17T04:38:46.743Z,53.88
2022-12-17T04:41:33.275Z,55.67
2022-12-17T04:44:18.669Z,51.85
2022-12-17T04:47:04.084Z,47.90
2022-12-17T04:49:49.794Z,47.47
2022-12-17T04:52:35.226Z,51.47
2022-12-17T04:55:20.652Z,55.53
2022-12-17T04:58:07.249Z,45.47
2022-12-17T05:00:52.621Z,47.80
2022-12-17T05:03:38.281Z,53.42
2022-12-17T05:06:24.184Z,48.15
2022-12-17T05:09:09.449Z,52.88
2022-12-17T05:11:53.931Z,52.92
2022-12-17T05:14:43.025Z,51.67
2022-12-17T05:17:28.446Z,58.35
2022-12-17T05:20:13.713Z,58.25
2022-12-17T05:22:59.116Z,59.15
2022-12-17T05:25:44.519Z,62.05
2022-12-17T05:28:29.830Z,62.58
2022-12-17T05:31:16.601Z,61.83
2022-12-17T05:34:01.701Z,60.50
2022-12-17T05:36:47.090Z,65.35
2022-12-17T05:39:32.430Z,60.45
2022-12-17T05:42:17.598Z,56.30
2022-12-17T05:45:03.000Z,59.15
2022-12-17T05:47:49.566Z,60.45
2022-12-17T05:50:34.869Z,59.83
2022-12-17T05:53:21.317Z,62.22
2022-12-17T05:56:10.160Z,58.03
2022-12-17T05:58:55.695Z,61.40
2022-12-17T06:01:41.107Z,54.03
2022-12-17T06:04:28.205Z,55.92
2022-12-17T06:07:13.591Z,59.28
2022-12-17T06:09:58.902Z,52.95
2022-12-17T06:12:44.317Z,54.72
2022-12-17T06:15:29.634Z,53.50
2022-12-17T06:18:17.083Z,59.08
2022-12-17T06:21:03.936Z,54.83
2022-12-17T06:23:49.380Z,51.67
2022-12-17T06:26:34.732Z,54.28
2022-12-17T06:29:20.109Z,54.65
2022-12-17T06:32:01.613Z,66.38
2022-12-17T06:34:46.977Z,64.75
2022-12-17T06:37:33.490Z,60.05
2022-12-17T06:40:18.862Z,59.22
2022-12-17T06:43:13.668Z,62.90
2022-12-17T06:45:59.017Z,55.90
2022-12-17T06:48:44.241Z,55.28
2022-12-17T06:51:29.564Z,56.33
2022-12-17T06:54:16.060Z,50.53
2022-12-17T06:57:01.367Z,48.78
2022-12-17T06:59:46.642Z,57.58
2022-12-17T07:02:46.516Z,57.38
2022-12-17T07:05:32.377Z,54.15
2022-12-17T07:08:18.247Z,52.08
2022-12-17T07:11:04.042Z,60.03
2022-12-17T07:13:49.292Z,55.70
2022-12-17T07:16:34.615Z,60.58
2022-12-17T07:19:25.308Z,56.65
2022-12-17T07:22:20.596Z,52.70
2022-12-17T07:25:05.967Z,54.67
2022-12-17T07:27:52.741Z,52.28
2022-12-17T07:30:55.545Z,61.35
2022-12-17T07:33:41.086Z,56.70
2022-12-17T07:36:26.230Z,57.63
2022-12-17T07:39:11.517Z,66.72
2022-12-17T07:41:56.788Z,63.80
2022-12-17T07:44:43.340Z,67.10
2022-12-17T07:47:28.674Z,62.17
2022-12-17T07:50:28.498Z,65.82
2022-12-17T07:53:20.023Z,65.10
2022-12-17T07:56:05.261Z,67.57
2022-12-17T07:58:50.475Z,65.28
2022-12-17T08:01:37.167Z,66.63
2022-12-17T08:04:22.367Z,59.92
2022-12-17T08:07:13.864Z,69.28
2022-12-17T08:09:59.583Z,67.35
2022-12-17T08:12:56.003Z,62.08
2022-12-17T08:15:41.517Z,65.07
2022-12-17T08:18:28.231Z,64.57
2022-12-17T08:21:13.580Z,59.78
2022-12-17T08:23:58.839Z,71.13
2022-12-17T08:26:59.478Z,75.40
2022-12-17T08:29:44.762Z,63.60
2022-12-17T08:32:30.021Z,66.45
2022-12-17T08:35:16.558Z,64.53
2022-12-17T08:38:01.843Z,61.20
2022-12-17T08:40:47.242Z,66.63
2022-12-17T08:43:32.536Z,62.13
2022-12-17T08:46:17.875Z,52.65
2022-12-17T08:49:03.090Z,54.03
2022-12-17T08:51:49.673Z,46.65
2022-12-17T08:54:35.186Z,49.47
2022-12-17T08:57:31.520Z,45.42
2022-12-17T09:00:17.308Z,46.33
2022-12-17T09:03:02.722Z,45.47
2022-12-17T09:05:48.435Z,44.67
2022-12-17T09:11:19.979Z,46.63
2022-12-17T09:14:05.250Z,47.25
2022-12-17T09:16:50.692Z,48.55
2022-12-17T09:19:35.827Z,44.05
2022-12-17T09:22:21.169Z,50.90
2022-12-17T09:25:07.766Z,46.78
2022-12-17T09:27:53.058Z,49.03
2022-12-17T09:30:38.514Z,44.83
2022-12-17T09:33:28.997Z,47.97
2022-12-17T09:36:28.853Z,43.50
2022-12-17T09:39:13.835Z,48.10
2022-12-17T09:42:06.687Z,47.80
2022-12-17T09:45:01.552Z,43.63
2022-12-17T09:47:54.851Z,44.25
2022-12-17T09:50:40.309Z,38.67
2022-12-17T09:53:39.596Z,46.45
2022-12-17T09:56:28.041Z,42.50
2022-12-17T09:59:14.623Z,37.78
2022-12-17T10:02:00.478Z,40.50
2022-12-17T10:04:52.189Z,38.25
2022-12-17T10:07:40.931Z,36.60
2022-12-17T10:10:34.630Z,39.95
2022-12-17T10:13:19.926Z,40.67
2022-12-17T10:16:06.724Z,39.97
2022-12-17T10:18:48.368Z,38.85
2022-12-17T10:21:36.754Z,41.67
2022-12-17T10:24:25.447Z,46.35
2022-12-17T10:27:10.752Z,40.95
2022-12-17T10:29:56.026Z,43.17
2022-12-17T10:32:44.515Z,38.00
2022-12-17T10:35:37.514Z,37.40
2022-12-17T10:38:29.933Z,45.08
2022-12-17T10:41:15.103Z,37.08
2022-12-17T10:44:00.210Z,40.50
2022-12-17T10:46:47.185Z,38.22
2022-12-17T10:49:36.055Z,35.70
2022-12-17T10:52:24.391Z,36.90
2022-12-17T10:55:20.988Z,39.08
2022-12-17T10:58:08.804Z,35.08
2022-12-17T11:00:56.452Z,33.85
2022-12-17T11:03:49.035Z,37.25
2022-12-17T11:06:42.708Z,40.33
2022-12-17T11:09:36.767Z,38.40
2022-12-17T11:12:30.327Z,50.38
2022-12-17T11:15:20.057Z,180.48
2022-12-17T11:18:22.411Z,161.57
2022-12-17T11:21:15.863Z,169.00
2022-12-17T11:24:07.208Z,70.05
2022-12-17T11:26:55.557Z,68.68
2022-12-17T11:29:40.775Z,38.05
2022-12-17T11:32:51.236Z,37.13
2022-12-17T11:35:42.544Z,35.75
2022-12-17T11:38:40.702Z,39.00
2022-12-17T11:41:37.624Z,35.78
2022-12-17T11:44:33.513Z,32.38
2022-12-17T11:47:29.955Z,37.83
2022-12-17T11:50:25.516Z,37.58
2022-12-17T11:53:22.859Z,39.03
2022-12-17T11:56:18.512Z,46.75
2022-12-17T11:59:09.087Z,35.08
2022-12-17T12:02:02.324Z,42.30
2022-12-17T12:05:09.774Z,38.35
2022-12-17T12:08:01.418Z,37.08
2022-12-17T12:10:55.304Z,44.58
2022-12-17T12:13:47.090Z,37.58
2022-12-17T12:16:44.006Z,40.35
2022-12-17T12:19:39.037Z,34.13
2022-12-17T12:22:31.055Z,39.70
2022-12-17T12:25:40.801Z,42.45
2022-12-17T12:28:37.435Z,39.78
2022-12-17T12:31:29.950Z,36.45
2022-12-17T12:34:21.741Z,39.25
2022-12-17T12:37:09.564Z,47.15
2022-12-17T12:39:58.787Z,41.83
2022-12-17T12:42:52.186Z,40.33
2022-12-17T12:45:52.622Z,41.08
2022-12-17T12:48:50.603Z,40.22
2022-12-17T12:51:41.921Z,37.03
2022-12-17T12:54:42.247Z,43.28
2022-12-17T12:57:46.455Z,43.72
2022-12-17T13:00:47.132Z,38.80
2022-12-17T13:03:43.493Z,41.65
2022-12-17T13:08:40.797Z,39.72
2022-12-17T13:11:28.241Z,42.00
2022-12-17T13:14:05.818Z,42.10
2022-12-17T13:16:40.225Z,39.10
2022-12-17T13:19:21.427Z,44.92
2022-12-17T13:21:49.735Z,39.75
2022-12-17T13:24:27.131Z,45.08
2022-12-17T13:26:54.901Z,48.45
2022-12-17T13:29:28.163Z,51.28
2022-12-17T13:32:08.127Z,42.50
2022-12-17T13:35:02.394Z,58.53
2022-12-17T13:37:41.950Z,56.28
2022-12-17T13:40:27.147Z,63.75
2022-12-17T13:42:55.271Z,59.33
2022-12-17T13:45:25.076Z,55.30
2022-12-17T13:47:56.673Z,56.28
2022-12-17T13:50:35.136Z,60.88
2022-12-17T13:53:11.359Z,61.83
2022-12-17T13:55:40.471Z,64.22
2022-12-17T13:58:22.174Z,68.25
2022-12-17T14:00:49.889Z,65.57
2022-12-17T14:03:37.137Z,70.25
2022-12-17T14:06:11.349Z,63.45
2022-12-17T14:08:39.547Z,64.05
2022-12-17T14:11:26.546Z,63.15
2022-12-17T14:13:54.747Z,64.80
2022-12-17T14:16:23.821Z,61.67
2022-12-17T14:18:53.878Z,66.90
2022-12-17T14:21:25.932Z,70.70
2022-12-17T14:23:54.100Z,70.70
2022-12-17T14:26:23.288Z,70.53
2022-12-17T14:28:52.571Z,77.55
2022-12-17T14:31:31.663Z,72.15
2022-12-17T14:34:07.462Z,70.63
2022-12-17T14:36:37.654Z,73.80
2022-12-17T14:39:11.335Z,73.90
2022-12-17T14:41:57.877Z,75.40
2022-12-17T14:44:28.120Z,76.63
2022-12-17T14:47:08.739Z,76.28
2022-12-17T14:49:38.437Z,78.63
2022-12-17T14:52:14.200Z,76.43
2022-12-17T14:54:47.223Z,87.32
2022-12-17T14:57:23.460Z,81.63
2022-12-17T14:59:54.252Z,81.40
2022-12-17T15:02:26.596Z,85.70
2022-12-17T15:04:57.705Z,89.72
2022-12-17T15:07:27.936Z,88.32
2022-12-17T15:09:56.779Z,84.82
2022-12-17T15:12:26.523Z,86.38
2022-12-17T15:14:54.235Z,89.38
2022-12-17T15:17:21.929Z,79.80
2022-12-17T15:19:55.725Z,82.43
2022-12-17T15:22:24.338Z,84.63
2022-12-17T15:24:52.023Z,77.95
2022-12-17T15:27:19.697Z,79.90
2022-12-17T15:29:51.689Z,81.28
2022-12-17T15:32:20.555Z,79.40
2022-12-17T15:34:48.452Z,75.82
2022-12-17T15:37:21.016Z,88.63
2022-12-17T15:39:52.015Z,82.60
2022-12-17T15:42:37.110Z,78.88
2022-12-17T15:45:07.276Z,80.18
2022-12-17T15:47:34.866Z,81.30
2022-12-17T15:50:02.490Z,87.53
2022-12-17T15:52:30.098Z,80.75
2022-12-17T15:54:57.709Z,80.90
2022-12-17T15:57:25.368Z,79.38
2022-12-17T15:59:53.286Z,83.43
2022-12-17T16:02:22.506Z,84.32
2022-12-17T16:04:50.292Z,85.90
2022-12-17T16:07:17.930Z,92.15
2022-12-17T16:09:45.607Z,91.03
2022-12-17T16:12:13.240Z,91.15
2022-12-17T16:14:40.921Z,92.43
2022-12-17T16:17:08.725Z,99.82
2022-12-17T16:19:37.855Z,92.88
2022-12-17T16:22:05.542Z,101.57
2022-12-17T16:24:33.168Z,90.20
2022-12-17T16:27:04.325Z,82.65
2022-12-17T16:29:32.562Z,77.90
2022-12-17T16:32:00.372Z,84.03
2022-12-17T16:34:28.050Z,93.57
2022-12-17T16:36:57.117Z,96.90
2022-12-17T16:39:24.822Z,92.22
2022-12-17T16:41:52.591Z,103.30
2022-12-17T16:44:20.390Z,107.05
2022-12-17T16:46:48.082Z,91.90
2022-12-17T16:49:18.048Z,97.38
2022-12-17T16:51:46.979Z,95.38
2022-12-17T16:54:17.769Z,85.55
2022-12-17T16:56:47.097Z,85.93
2022-12-17T16:59:16.323Z,87.90
2022-12-17T17:01:46.624Z,82.93
2022-12-17T17:04:16.514Z,82.78
2022-12-17T17:06:46.857Z,70.55
2022-12-17T17:09:16.706Z,66.43
2022-12-17T17:11:49.490Z,68.28
2022-12-17T17:14:19.141Z,69.78
2022-12-17T17:16:46.906Z,68.10
2022-12-17T17:19:15.165Z,65.53
2022-12-17T17:21:43.687Z,65.10
2022-12-17T17:24:20.453Z,64.93
2022-12-17T17:26:51.500Z,54.90
2022-12-17T17:29:19.407Z,66.97
2022-12-17T17:34:34.713Z,78.25
2022-12-17T17:37:02.339Z,70.55
2022-12-17T17:39:32.979Z,77.43
2022-12-17T17:42:02.553Z,72.20
2022-12-17T17:44:30.225Z,74.68
2022-12-17T17:46:57.961Z,75.47
2022-12-17T17:49:25.832Z,82.10
2022-12-17T17:52:09.353Z,80.90
2022-12-17T17:54:38.191Z,78.35
2022-12-17T17:57:07.222Z,84.30
2022-12-17T17:59:34.884Z,77.63
2022-12-17T18:02:03.924Z,83.00
2022-12-17T18:04:32.523Z,78.63
2022-12-17T18:09:47.993Z,74.43
2022-12-17T18:12:34.295Z,77.38
2022-12-17T18:15:18.587Z,80.90
2022-12-17T18:17:47.721Z,78.60
2022-12-17T18:20:15.676Z,86.53
2022-12-17T18:22:44.885Z,87.43
2022-12-17T18:25:12.877Z,78.88
2022-12-17T18:27:42.451Z,84.60
2022-12-17T18:30:11.003Z,86.65
2022-12-17T18:32:38.710Z,83.13
2022-12-17T18:35:07.351Z,85.10
2022-12-17T18:37:35.114Z,79.95
2022-12-17T18:40:02.845Z,84.97
2022-12-17T18:42:47.814Z,89.45
2022-12-17T18:45:17.146Z,81.10
2022-12-17T18:47:45.115Z,87.40
2022-12-17T18:50:13.358Z,82.32
2022-12-17T18:52:41.066Z,81.75
2022-12-17T18:55:12.151Z,86.82
2022-12-17T18:57:39.881Z,86.35
2022-12-17T19:00:08.950Z,87.93
2022-12-17T19:02:38.199Z,96.90
2022-12-17T19:05:06.280Z,92.25
2022-12-17T19:07:33.983Z,88.55
2022-12-17T19:10:01.593Z,86.95
2022-12-17T19:12:29.324Z,78.65
2022-12-17T19:14:56.961Z,89.13
2022-12-17T19:17:25.325Z,83.30
2022-12-17T19:19:54.279Z,76.93
2022-12-17T19:22:22.072Z,80.05
2022-12-17T19:24:49.725Z,78.55
2022-12-17T19:27:17.392Z,80.35
2022-12-17T19:29:49.184Z,76.22
2022-12-17T19:32:17.522Z,78.32
2022-12-17T19:34:45.263Z,76.13
2022-12-17T19:37:14.246Z,78.40
2022-12-17T19:39:42.023Z,71.18
2022-12-17T19:42:24.431Z,71.38
2022-12-17T19:44:53.136Z,76.00
2022-12-17T19:47:21.047Z,77.88
2022-12-17T19:49:48.690Z,76.15
2022-12-17T19:52:17.656Z,83.57
2022-12-17T19:54:45.297Z,80.97
2022-12-17T19:57:12.904Z,75.28
2022-12-17T19:59:54.444Z,75.90
2022-12-17T20:02:22.336Z,81.13
2022-12-17T20:04:51.060Z,79.28
2022-12-17T20:07:20.034Z,79.95
2022-12-17T20:09:47.719Z,72.53
2022-12-17T20:12:15.382Z,76.60
2022-12-17T20:14:43.015Z,68.25
2022-12-17T20:17:10.828Z,66.75
2022-12-17T20:19:38.679Z,69.85
2022-12-17T20:22:07.521Z,78.05
2022-12-17T20:24:37.207Z,72.28
2022-12-17T20:27:05.736Z,71.00
2022-12-17T20:29:35.988Z,76.10
2022-12-17T20:32:04.315Z,70.60
2022-12-17T20:34:32.407Z,72.82
2022-12-17T20:37:00.090Z,71.53
2022-12-17T20:39:28.415Z,71.32
2022-12-17T20:41:58.252Z,73.75
2022-12-17T20:44:26.038Z,70.35
2022-12-17T20:46:53.682Z,71.43
2022-12-17T20:49:24.413Z,72.45
2022-12-17T20:51:52.091Z,71.57
2022-12-17T20:54:19.743Z,72.45
2022-12-17T20:56:47.392Z,68.85
2022-12-17T20:59:18.373Z,69.55
2022-12-17T21:01:51.625Z,68.38
2022-12-17T21:04:22.379Z,68.57
2022-12-17T21:06:50.188Z,74.28
2022-12-17T21:09:20.134Z,65.45
2022-12-17T21:11:48.043Z,63.17
2022-12-17T21:14:18.992Z,62.03
2022-12-17T21:16:47.316Z,63.13
2022-12-17T21:19:21.228Z,58.78
2022-12-17T21:21:49.202Z,65.80
2022-12-17T21:24:16.950Z,66.80
2022-12-17T21:26:45.775Z,63.13
2022-12-17T21:29:14.372Z,58.10
2022-12-17T21:31:45.772Z,60.15
2022-12-17T21:34:16.207Z,59.08
2022-12-17T21:36:44.975Z,62.92
2022-12-17T21:39:14.503Z,59.08
2022-12-17T21:42:03.963Z,58.22
2022-12-17T21:44:32.132Z,57.28
2022-12-17T21:47:02.080Z,50.15
2022-12-17T21:49:29.819Z,56.42
2022-12-17T21:51:59.173Z,58.47
2022-12-17T21:54:26.911Z,64.20
2022-12-17T21:56:54.639Z,59.92
2022-12-17T21:59:22.309Z,60.33
2022-12-17T22:01:50.748Z,56.42
2022-12-17T22:04:20.196Z,59.67
2022-12-17T22:06:47.973Z,62.13
2022-12-17T22:09:57.309Z,61.30
2022-12-17T22:12:30.303Z,56.28
2022-12-17T22:14:57.978Z,63.22
2022-12-17T22:17:26.133Z,60.08
2022-12-17T22:19:55.141Z,55.97
2022-12-17T22:22:22.788Z,54.55
2022-12-17T22:24:50.500Z,57.70
2022-12-17T22:27:18.255Z,54.15
2022-12-17T22:30:03.472Z,57.67
2022-12-17T22:32:48.747Z,61.53
2022-12-17T22:36:41.926Z,58.75
2022-12-17T22:41:07.279Z,60.53
2022-12-17T22:44:29.081Z,62.75
2022-12-17T22:44:42.956Z,59.60
2022-12-17T22:46:31.555Z,57.45
2022-12-17T22:48:59.312Z,67.35
2022-12-17T22:51:33.713Z,67.43
2022-12-17T22:54:06.754Z,68.47
2022-12-17T23:03:02.473Z,66.15
2022-12-17T23:05:30.966Z,66.72
2022-12-17T23:07:59.463Z,69.80
2022-12-17T23:10:29.264Z,66.78
2022-12-17T23:12:57.072Z,65.30
2022-12-17T23:15:28.635Z,64.22
2022-12-17T23:17:58.731Z,64.45
2022-12-17T23:20:29.023Z,69.60
2022-12-17T23:22:57.711Z,69.40
2022-12-17T23:25:26.758Z,67.10
2022-12-17T23:27:54.490Z,67.93
2022-12-17T23:30:22.678Z,73.68
2022-12-17T23:32:50.474Z,73.32
2022-12-17T23:35:18.412Z,77.20
2022-12-17T23:37:47.497Z,72.30
2022-12-17T23:40:15.282Z,72.30
2022-12-17T23:42:42.949Z,78.28
2022-12-17T23:45:11.948Z,74.80
2022-12-17T23:47:41.232Z,74.53
2022-12-17T23:50:10.806Z,77.38
2022-12-17T23:52:38.565Z,72.63
2022-12-17T23:55:08.998Z,69.68
2022-12-17T23:57:37.128Z,74.95
